Etusivu
METAR-TAF:

METAR-TAF

Lentoasemat :

Culiacán, Meksiko

Leveyspiiri: 24-49N, Pituuspiiri: 107-24W, korkeus merenpinnasta: 39 m

Tämänhetkinen sää

Tämä raportti tehtiin 53 minuuttia sitten, kello 17.50 UTC
tyyntä
Lämpötila 24°C
Kosteus 50%
Ilmanpaine 1015 hPa
Näkyvyys: 16.1 km
Pilvistä 23000 ft:n korkeudessa

METAR: MMCL 281750Z 00000KT 10SM OVC230 24/13 A2996 RMK SLP144 51013 922 8/007

Aika: 11:43 (18:43 UTC)

Sääennuste

Tämä raportti tehtiin 1 tunti ja 41 minuuttia sitten, kello 17.02 UTC
Ennuste voimassa 28. päivästä klo 18 UTC - 01. päivään klo 18 UTC
Tuuli 12 kn lännestä/lounaasta
Näkyvyys: 10 km
Hajonneita pilviä 25000 ft:n korkeudessa
From 01. päivästä klo 0300 UTC
Tuuli 10 kn pohjoisen/luoteesta
Näkyvyys: 10 km
Hajonneita pilviä 20000 ft:n korkeudessa

TAF: MMCL 281702Z 2818/0118 24012KT P6SM BKN250 FM010300 34010KT P6SM BKN200

Säähavainnot ja -ennusteet yli 4000 lentoasemalta (METAR- ja TAF-raportit).

Käytössä olevat sääasemat on merkitty karttaan keltaisilla ja punaisilla pisteillä.

Aseta hiiri pisteen päälle nähdäksesi sääaseman nimen.

Klikkaa sitten nähdäksesi säähavainnot ja -ennusteet.

Kartan vaihtaminen: klikkaa mustalla rastilla varustettuja vihreitä pisteitä, niin voit zoomata sisään; viivalla varustettua vihreää pistettä, niin voit zoomata ulos tai vihreitä nuolia, niin pääset viereisille kartoille.


METAR-TAF: